Time;durP1;ratioP1;P1;durP2;ratioP2;P2;SDS_P1;SDS_P2;PMS_P1;PMS_P2;Temp;Humidity;BMP_temperature;BMP_pressure;BME280_temperature;BME280_humidity;BME280_pressure;Samples;Min_cycle;Max_cycle;Signal;HPM_P1;HPM_P2
2023/12/13 00:01:59;;;;;;;31.37;21.10;;;;;;;4.54;100.00;42175.56;6185371;23;20586;-58
2023/12/13 00:04:26;;;;;;;31.00;20.47;;;;;;;4.49;100.00;42299.50;6185109;23;20166;-58
2023/12/13 00:06:55;;;;;;;27.27;19.77;;;;;;;4.62;100.00;41976.19;6184910;23;20182;-59
2023/12/13 00:09:22;;;;;;;28.00;19.00;;;;;;;4.39;100.00;43468.69;6185434;23;20487;-57
2023/12/13 00:11:49;;;;;;;27.20;18.47;;;;;;;4.37;100.00;43059.41;6185004;23;20225;-58
2023/12/13 00:14:17;;;;;;;25.33;18.00;;;;;;;4.17;100.00;42550.81;6185370;23;20241;-58
2023/12/13 00:16:44;;;;;;;26.17;18.53;;;;;;;4.30;100.00;41114.19;6184967;23;20240;-59
2023/12/13 00:19:11;;;;;;;22.43;17.33;;;;;;;4.32;100.00;39747.72;6184977;23;20212;-58
2023/12/13 00:21:38;;;;;;;24.93;18.03;;;;;;;4.33;100.00;38638.16;6184888;23;20249;-58
2023/12/13 00:24:08;;;;;;;22.80;17.83;;;;;;;4.29;100.00;38427.56;6185290;23;20598;-60
2023/12/13 00:26:36;;;;;;;25.03;17.53;;;;;;;4.18;100.00;38435.06;6184767;23;20169;-60
2023/12/13 00:29:03;;;;;;;29.47;19.60;;;;;;;4.06;100.00;37685.44;6185713;23;20166;-58
2023/12/13 00:31:30;;;;;;;29.07;20.87;;;;;;;3.81;100.00;38480.06;6184871;23;20161;-59
2023/12/13 00:33:57;;;;;;;27.23;20.77;;;;;;;3.90;100.00;38181.44;6185076;23;20541;-59
2023/12/13 00:36:24;;;;;;;34.43;21.10;;;;;;;3.78;100.00;37469.38;6185206;23;20494;-60
2023/12/13 00:38:51;;;;;;;39.33;28.30;;;;;;;3.78;100.00;36585.53;6185206;23;20158;-58
2023/12/13 00:41:21;;;;;;;50.87;32.17;;;;;;;3.90;100.00;37275.09;6184822;23;20162;-58
2023/12/13 00:43:48;;;;;;;64.27;37.67;;;;;;;3.68;100.00;37313.22;6184631;23;20248;-58
2023/12/13 00:46:19;;;;;;;52.33;33.30;;;;;;;3.97;100.00;36220.56;6185110;23;20549;-59
2023/12/13 00:48:47;;;;;;;59.23;36.57;;;;;;;4.00;100.00;35980.28;6184516;23;20236;-59
2023/12/13 00:51:18;;;;;;;63.70;35.97;;;;;;;4.05;100.00;35916.41;6185250;23;20206;-58
2023/12/13 00:53:45;;;;;;;66.63;40.33;;;;;;;4.08;100.00;36218.00;6185253;23;20240;-58
2023/12/13 00:56:12;;;;;;;56.57;36.23;;;;;;;3.89;100.00;37823.91;6184481;23;20205;-58
2023/12/13 00:58:42;;;;;;;73.00;43.03;;;;;;;4.02;100.00;38424.47;6185029;23;20498;-58
2023/12/13 01:01:10;;;;;;;50.63;33.10;;;;;;;4.02;100.00;39136.69;6184554;23;20165;-58
2023/12/13 01:03:37;;;;;;;56.63;34.87;;;;;;;3.94;100.00;38031.75;6185451;23;20158;-58
2023/12/13 01:06:09;;;;;;;59.50;36.27;;;;;;;4.00;100.00;39195.25;6184424;23;20162;-59
2023/12/13 01:08:36;;;;;;;64.13;39.37;;;;;;;4.08;100.00;40170.81;6184392;23;20189;-58
2023/12/13 01:11:08;;;;;;;42.03;26.93;;;;;;;4.10;100.00;40552.69;6184831;23;20166;-58
2023/12/13 01:13:35;;;;;;;60.07;36.67;;;;;;;4.18;100.00;39594.97;6184404;23;20158;-58
2023/12/13 01:16:04;;;;;;;53.50;33.10;;;;;;;4.03;100.00;41312.50;6185253;23;20198;-58
2023/12/13 01:18:31;;;;;;;54.90;34.50;;;;;;;3.76;100.00;44584.50;6184697;23;20578;-60
2023/12/13 01:20:57;;;;;;;42.60;28.80;;;;;;;3.81;100.00;43442.47;6184670;23;20193;-58
2023/12/13 01:23:24;;;;;;;35.70;24.10;;;;;;;3.72;100.00;41145.19;6184302;23;20166;-57
2023/12/13 01:25:51;;;;;;;39.77;28.13;;;;;;;3.93;100.00;39995.50;6184340;23;20158;-58
2023/12/13 01:28:18;;;;;;;37.67;26.27;;;;;;;3.92;100.00;39399.97;6185060;23;20267;-58
2023/12/13 01:30:45;;;;;;;34.67;22.50;;;;;;;3.81;100.00;38502.88;6184436;23;20557;-58
2023/12/13 01:33:14;;;;;;;31.17;22.47;;;;;;;3.97;100.00;38518.50;6184276;23;20170;-58
2023/12/13 01:35:41;;;;;;;36.50;24.10;;;;;;;4.03;100.00;37385.81;6184861;23;20581;-58
2023/12/13 01:38:08;;;;;;;41.17;27.77;;;;;;;4.06;100.00;36936.00;6183918;23;20215;-59
2023/12/13 01:40:35;;;;;;;38.13;26.03;;;;;;;4.06;100.00;36750.84;6183935;23;20162;-58
2023/12/13 01:43:02;;;;;;;45.87;27.77;;;;;;;4.06;100.00;36763.34;6184098;23;20224;-58
2023/12/13 01:45:29;;;;;;;44.00;28.77;;;;;;;3.88;100.00;39252.22;6183752;23;20163;-58
2023/12/13 01:47:56;;;;;;;38.23;26.13;;;;;;;3.20;100.00;41997.25;6183956;23;20672;-59
2023/12/13 01:50:26;;;;;;;32.70;23.20;;;;;;;2.85;100.00;41012.66;6184537;23;20229;-58
2023/12/13 01:52:55;;;;;;;29.97;18.93;;;;;;;3.01;100.00;38787.75;6184212;23;20205;-58
2023/12/13 01:55:23;;;;;;;24.67;17.87;;;;;;;3.21;100.00;37414.53;6184072;23;20167;-59
2023/12/13 01:57:50;;;;;;;24.47;17.43;;;;;;;3.31;100.00;36654.94;6184033;23;20237;-58
2023/12/13 02:00:18;;;;;;;22.70;16.97;;;;;;;3.34;100.00;36761.34;6184416;23;20241;-58
2023/12/13 02:02:47;;;;;;;24.70;18.17;;;;;;;3.44;100.00;37074.81;6184380;23;20672;-60
2023/12/13 02:05:16;;;;;;;23.33;18.20;;;;;;;3.44;100.00;37386.75;6183908;23;20185;-58
2023/12/13 02:07:44;;;;;;;22.60;18.03;;;;;;;3.64;100.00;37582.34;6184277;23;20714;-58
2023/12/13 02:10:11;;;;;;;25.17;18.00;;;;;;;3.67;100.00;40434.31;6183999;23;20158;-59
2023/12/13 02:12:39;;;;;;;28.63;18.83;;;;;;;3.65;100.00;42574.97;6183854;23;20162;-59
2023/12/13 02:15:07;;;;;;;25.00;19.50;;;;;;;3.63;100.00;43919.25;6183886;23;20166;-58
2023/12/13 02:17:34;;;;;;;26.63;18.83;;;;;;;3.67;100.00;44512.38;6184757;23;20158;-60
2023/12/13 02:20:01;;;;;;;26.13;18.17;;;;;;;3.57;100.00;45525.25;6184468;23;20545;-59
2023/12/13 02:22:30;;;;;;;26.60;17.70;;;;;;;3.54;100.00;44121.97;6183927;23;20165;-57
2023/12/13 02:25:00;;;;;;;27.40;17.30;;;;;;;3.60;100.00;39932.47;6183690;23;20162;-59
2023/12/13 02:27:29;;;;;;;18.07;15.97;;;;;;;3.67;100.00;38608.50;6184110;23;20162;-57
2023/12/13 02:29:57;;;;;;;24.67;17.30;;;;;;;3.72;100.00;38970.94;6183714;23;20208;-58
2023/12/13 02:32:24;;;;;;;20.67;16.53;;;;;;;3.75;100.00;39252.81;6183730;23;20249;-59
2023/12/13 02:34:51;;;;;;;25.47;18.13;;;;;;;3.76;100.00;39543.31;6183767;23;20220;-58
2023/12/13 02:37:19;;;;;;;26.47;17.63;;;;;;;3.76;100.00;39863.50;6183697;23;20166;-60
2023/12/13 02:39:47;;;;;;;19.97;16.70;;;;;;;3.63;100.00;40998.69;6183731;23;20159;-58
2023/12/13 02:42:14;;;;;;;20.37;16.87;;;;;;;3.53;100.00;39622.78;6183747;23;20177;-58
2023/12/13 02:44:44;;;;;;;25.47;20.30;;;;;;;3.74;100.00;38522.72;6184094;23;20167;-58
2023/12/13 02:47:11;;;;;;;30.80;20.43;;;;;;;3.68;100.00;39110.88;6183696;23;20192;-58
2023/12/13 02:49:38;;;;;;;33.87;21.97;;;;;;;3.34;100.00;40947.66;6183955;23;20637;-58
2023/12/13 02:52:06;;;;;;;31.53;21.30;;;;;;;3.27;100.00;42381.47;6184014;23;20181;-58
2023/12/13 02:54:33;;;;;;;28.47;21.20;;;;;;;3.13;100.00;43805.56;6184958;23;20519;-59
2023/12/13 02:57:01;;;;;;;23.80;16.77;;;;;;;3.21;100.00;43864.22;6185795;23;20161;-59
2023/12/13 02:59:28;;;;;;;17.33;15.27;;;;;;;3.32;100.00;42290.25;6185738;23;20158;-58
2023/12/13 03:01:55;;;;;;;20.80;16.50;;;;;;;3.54;100.00;40152.69;6185658;23;20213;-60
2023/12/13 03:04:23;;;;;;;28.17;17.23;;;;;;;3.65;100.00;40925.53;6185888;23;20236;-60
2023/12/13 03:06:50;;;;;;;19.17;15.40;;;;;;;3.66;100.00;42031.06;6185718;23;20171;-58
2023/12/13 03:09:17;;;;;;;20.87;16.27;;;;;;;3.89;100.00;42470.09;6185888;23;20256;-59
2023/12/13 03:11:44;;;;;;;26.33;17.50;;;;;;;4.07;100.00;42451.09;6186583;23;20162;-59
2023/12/13 03:14:12;;;;;;;29.57;19.60;;;;;;;4.18;100.00;41998.56;6185557;23;20165;-60
2023/12/13 03:16:39;;;;;;;31.87;20.33;;;;;;;4.28;100.00;42451.47;6185912;23;20598;-59
2023/12/13 03:19:06;;;;;;;27.13;18.43;;;;;;;4.26;100.00;45587.31;6185830;23;20159;-60
2023/12/13 03:21:33;;;;;;;45.20;27.03;;;;;;;4.14;100.00;48971.41;6185986;23;20217;-58
2023/12/13 03:24:00;;;;;;;40.13;25.10;;;;;;;4.26;100.00;48820.34;6185506;23;20158;-59
2023/12/13 03:26:27;;;;;;;49.03;29.07;;;;;;;4.33;100.00;48643.72;6185795;23;20589;-58
2023/12/13 03:28:54;;;;;;;37.63;20.83;;;;;;;4.20;100.00;53388.91;6185683;23;20190;-60
2023/12/13 03:31:23;;;;;;;30.57;20.83;;;;;;;3.77;100.00;56738.38;6185549;23;20162;-59
2023/12/13 03:33:50;;;;;;;30.13;22.40;;;;;;;3.56;100.00;52528.22;6185348;23;20162;-59
2023/12/13 03:36:17;;;;;;;44.73;25.23;;;;;;;3.72;100.00;48216.38;6185815;23;20561;-58
2023/12/13 03:38:45;;;;;;;40.40;26.17;;;;;;;3.80;100.00;46505.06;6185349;23;20162;-59
2023/12/13 03:41:12;;;;;;;39.83;26.67;;;;;;;3.86;100.00;45493.44;6185367;23;20170;-58
2023/12/13 03:43:40;;;;;;;35.47;23.77;;;;;;;4.01;100.00;45878.56;6185707;23;20670;-60
2023/12/13 03:46:07;;;;;;;45.47;29.07;;;;;;;4.05;100.00;47371.84;6185690;23;20419;-58
2023/12/13 03:48:35;;;;;;;44.73;27.63;;;;;;;4.04;100.00;48531.69;6185156;23;20182;-59
2023/12/13 03:51:04;;;;;;;36.73;23.37;;;;;;;4.04;100.00;50406.94;6185296;23;20228;-58
2023/12/13 03:53:31;;;;;;;51.27;29.63;;;;;;;4.00;100.00;50445.59;6185049;23;20201;-58
2023/12/13 03:55:59;;;;;;;42.07;28.47;;;;;;;4.02;100.00;49151.16;6185180;23;20155;-60
2023/12/13 03:58:26;;;;;;;69.27;37.33;;;;;;;4.04;100.00;49479.22;6186103;23;20182;-58
2023/12/13 04:00:53;;;;;;;37.97;23.10;;;;;;;4.01;100.00;51806.38;6185566;23;20705;-58
2023/12/13 04:03:20;;;;;;;47.53;29.70;;;;;;;4.02;100.00;50931.84;6185125;23;20166;-58
2023/12/13 04:05:48;;;;;;;41.07;24.77;;;;;;;4.07;100.00;48286.09;6185419;23;20162;-58
2023/12/13 04:08:15;;;;;;;68.13;39.23;;;;;;;3.97;100.00;47280.03;6185067;23;20232;-58
2023/12/13 04:10:42;;;;;;;70.73;36.33;;;;;;;4.06;100.00;43150.97;6185036;23;20161;-58
2023/12/13 04:13:09;;;;;;;63.40;37.80;;;;;;;4.13;100.00;41285.16;6185284;23;20217;-59
2023/12/13 04:15:36;;;;;;;63.40;37.33;;;;;;;3.87;100.00;39938.41;6185223;23;20162;-60
2023/12/13 04:18:03;;;;;;;54.37;31.87;;;;;;;4.14;100.00;40810.66;6185337;23;20158;-58
2023/12/13 04:20:30;;;;;;;46.70;28.63;;;;;;;3.72;100.00;53535.75;6184883;23;20250;-58
2023/12/13 04:22:59;;;;;;;49.70;28.30;;;;;;;3.66;100.00;52386.47;6184972;23;20217;-59
2023/12/13 04:25:26;;;;;;;49.20;28.33;;;;;;;3.52;100.00;51526.38;6185408;23;20163;-60
2023/12/13 04:27:53;;;;;;;43.67;26.83;;;;;;;3.60;100.00;47995.84;6184801;23;20161;-60
2023/12/13 04:30:20;;;;;;;47.73;30.03;;;;;;;3.48;100.00;44052.66;6185289;23;20226;-59
2023/12/13 04:32:47;;;;;;;46.03;30.93;;;;;;;3.28;100.00;43626.78;6185523;23;20166;-59
2023/12/13 04:35:14;;;;;;;43.40;29.17;;;;;;;3.45;100.00;42127.91;6185032;23;20197;-59
2023/12/13 04:37:41;;;;;;;47.90;29.13;;;;;;;3.52;100.00;43385.59;6185209;23;20241;-58
2023/12/13 04:40:10;;;;;;;49.30;30.43;;;;;;;3.54;100.00;45298.06;6184835;23;20162;-59
2023/12/13 04:42:40;;;;;;;47.63;27.67;;;;;;;3.23;100.00;42701.16;6185144;23;20165;-60
2023/12/13 04:45:09;;;;;;;52.00;31.00;;;;;;;3.55;100.00;42562.84;6185104;23;20182;-60
2023/12/13 04:47:36;;;;;;;58.60;34.10;;;;;;;3.64;100.00;42174.59;6185350;23;20530;-59
2023/12/13 04:50:04;;;;;;;72.70;38.90;;;;;;;3.71;100.00;43407.28;6184656;23;20182;-59
2023/12/13 04:52:31;;;;;;;71.67;38.20;;;;;;;3.64;100.00;44515.00;6185405;23;20668;-60
2023/12/13 04:54:58;;;;;;;66.63;36.87;;;;;;;3.88;100.00;44365.78;6184932;23;20174;-59
2023/12/13 04:57:27;;;;;;;71.10;41.03;;;;;;;3.90;100.00;44469.97;6185448;23;20166;-59
2023/12/13 04:59:54;;;;;;;59.80;34.97;;;;;;;4.07;100.00;45475.19;6185259;23;20598;-58
2023/12/13 05:02:20;;;;;;;59.50;35.40;;;;;;;4.02;100.00;51546.38;6184423;23;20158;-58
2023/12/13 05:04:47;;;;;;;57.77;33.87;;;;;;;4.01;100.00;53987.09;6184317;23;20162;-60
2023/12/13 05:07:14;;;;;;;56.37;33.63;;;;;;;4.02;100.00;52667.88;6184439;23;20193;-58
2023/12/13 05:09:41;;;;;;;54.97;33.30;;;;;;;4.02;100.00;50352.53;6183881;23;20186;-59
2023/12/13 05:12:09;;;;;;;56.30;33.03;;;;;;;3.95;100.00;48205.75;6184534;23;20549;-60
2023/12/13 05:14:37;;;;;;;52.13;30.80;;;;;;;3.56;100.00;49630.50;6184145;23;20240;-59
2023/12/13 05:17:05;;;;;;;55.03;31.73;;;;;;;3.51;100.00;44505.19;6184155;23;20162;-58
2023/12/13 05:19:32;;;;;;;49.40;30.73;;;;;;;3.45;100.00;39928.97;6184152;23;20597;-60
2023/12/13 05:21:59;;;;;;;66.40;36.47;;;;;;;3.39;100.00;37014.13;6184252;23;20197;-57
2023/12/13 05:24:26;;;;;;;54.03;31.70;;;;;;;3.38;100.00;35442.25;6185064;23;20166;-58
2023/12/13 05:26:53;;;;;;;45.37;28.93;;;;;;;3.22;100.00;35028.53;6184270;23;20232;-59
2023/12/13 05:29:20;;;;;;;47.57;29.37;;;;;;;3.45;100.00;34827.88;6183918;23;20525;-58
2023/12/13 05:31:48;;;;;;;45.87;30.07;;;;;;;3.49;100.00;35327.00;6184365;23;20170;-58
2023/12/13 05:34:15;;;;;;;44.77;29.10;;;;;;;3.45;100.00;35189.47;6184230;23;20570;-58
2023/12/13 05:36:42;;;;;;;52.03;29.57;;;;;;;3.53;100.00;34137.41;6184064;23;20165;-58
2023/12/13 05:39:09;;;;;;;51.07;30.13;;;;;;;3.35;100.00;35816.94;6183938;23;20158;-58
2023/12/13 05:41:36;;;;;;;46.00;28.00;;;;;;;3.41;100.00;35817.97;6184420;23;20602;-58
2023/12/13 05:44:03;;;;;;;45.83;28.67;;;;;;;3.42;100.00;34915.78;6184288;23;20161;-59
2023/12/13 05:46:33;;;;;;;51.80;30.63;;;;;;;3.46;100.00;34534.25;6184455;23;20166;-59
2023/12/13 05:49:05;;;;;;;52.03;29.07;;;;;;;3.39;100.00;35706.94;6183984;23;20225;-58
2023/12/13 05:51:32;;;;;;;42.17;26.43;;;;;;;3.44;100.00;33917.16;6184174;23;20169;-58
2023/12/13 05:53:59;;;;;;;45.83;26.83;;;;;;;3.60;100.00;32426.06;6183631;23;20204;-58
2023/12/13 05:56:27;;;;;;;57.17;29.43;;;;;;;3.86;100.00;30554.06;6183905;23;20230;-59
2023/12/13 05:58:54;;;;;;;49.27;29.60;;;;;;;4.24;100.00;29415.44;6184247;23;20601;-58
2023/12/13 06:01:22;;;;;;;49.50;31.60;;;;;;;4.39;100.00;30470.63;6183926;23;20159;-58
2023/12/13 06:03:49;;;;;;;47.70;29.67;;;;;;;4.64;100.00;31822.19;6183740;23;20161;-59
2023/12/13 06:06:17;;;;;;;49.60;32.10;;;;;;;4.77;100.00;32848.53;6183784;23;20174;-58
2023/12/13 06:08:46;;;;;;;56.33;33.63;;;;;;;5.05;100.00;35309.78;6184202;23;20213;-59
2023/12/13 06:11:13;;;;;;;50.83;32.43;;;;;;;5.39;100.00;36481.75;6183814;23;20220;-60
2023/12/13 06:13:41;;;;;;;55.40;31.97;;;;;;;5.87;100.00;35433.31;6183737;23;20221;-57
2023/12/13 06:16:12;;;;;;;49.70;30.87;;;;;;;6.44;100.00;35366.38;6183769;23;20244;-60
2023/12/13 06:18:39;;;;;;;36.00;26.03;;;;;;;6.98;100.00;30219.19;6184311;23;20495;-58
2023/12/13 06:21:07;;;;;;;33.53;23.10;;;;;;;7.32;100.00;17923.47;6183574;23;20186;-59
2023/12/13 06:23:36;;;;;;;35.33;25.37;;;;;;;8.03;100.00;11554.63;6184070;23;20598;-59
2023/12/13 06:26:03;;;;;;;33.70;24.47;;;;;;;8.33;100.00;21480.88;6184095;23;20189;-59
2023/12/13 06:28:30;;;;;;;60.83;36.63;;;;;;;8.25;100.00;47208.97;6183480;23;20236;-58
2023/12/13 06:30:57;;;;;;;64.33;38.73;;;;;;;7.61;100.00;113268.09;6183446;23;20224;-58
2023/12/13 06:33:24;;;;;;;58.07;36.00;;;;;;;7.24;100.00;144646.69;6183459;23;20163;-58
2023/12/13 06:35:52;;;;;;;58.40;37.13;;;;;;;6.36;100.00;96008.94;6183241;23;20177;-58
2023/12/13 06:38:19;;;;;;;70.97;38.50;;;;;;;6.46;100.00;75511.53;6183520;23;20172;-58
2023/12/13 06:40:48;;;;;;;73.97;43.93;;;;;;;6.45;100.00;83635.56;6183874;23;20304;-58
2023/12/13 06:43:15;;;;;;;69.93;37.80;;;;;;;6.19;100.00;81322.19;6183320;23;20189;-56
2023/12/13 06:45:42;;;;;;;66.20;37.47;;;;;;;5.80;100.00;69271.19;6182982;23;20162;-56
2023/12/13 06:48:10;;;;;;;65.90;34.93;;;;;;;5.62;100.00;60200.78;6183624;23;20545;-57
2023/12/13 06:50:37;;;;;;;49.57;31.53;;;;;;;5.43;100.00;45693.03;6183116;23;20265;-57
2023/12/13 06:53:04;;;;;;;60.30;34.97;;;;;;;5.17;100.00;36052.13;6183059;23;20256;-57
2023/12/13 06:55:31;;;;;;;63.93;37.80;;;;;;;5.15;100.00;21992.00;6183297;23;20208;-56
2023/12/13 06:58:00;;;;;;;78.23;44.07;;;;;;;5.19;100.00;17213.97;6183330;23;20229;-57
2023/12/13 07:00:28;;;;;;;87.17;46.33;;;;;;;5.32;100.00;13716.84;6183383;23;20166;-57
2023/12/13 07:02:55;;;;;;;88.60;50.10;;;;;;;5.26;100.00;7993.97;6183395;23;20225;-56
2023/12/13 07:05:22;;;;;;;90.20;53.20;;;;;;;5.33;100.00;5772.88;6183945;23;20602;-56
2023/12/13 07:07:48;;;;;;;103.50;53.67;;;;;;;6.04;100.00;4194.66;6184092;23;20158;-57
2023/12/13 07:10:16;;;;;;;87.97;50.53;;;;;;;7.06;100.00;4206.66;6183669;23;20186;-58
2023/12/13 07:12:43;;;;;;;74.50;44.57;;;;;;;8.42;100.00;9327.91;6183706;23;20220;-58
2023/12/13 07:15:12;;;;;;;80.03;45.97;;;;;;;8.44;100.00;54014.13;6183744;23;20232;-56
2023/12/13 07:17:42;;;;;;;75.67;42.87;;;;;;;8.71;100.00;88206.41;6183773;23;20693;-57
2023/12/13 07:20:10;;;;;;;75.23;43.40;;;;;;;8.68;100.00;102291.81;6183902;23;20164;-58
2023/12/13 07:22:37;;;;;;;65.90;41.57;;;;;;;9.75;100.00;106096.22;6183365;23;20194;-58
2023/12/13 07:25:06;;;;;;;63.87;40.17;;;;;;;10.79;100.00;146803.72;6183102;23;20194;-58
2023/12/13 07:27:33;;;;;;;60.23;37.70;;;;;;;11.40;100.00;148906.97;6183488;23;20210;-58
2023/12/13 07:30:01;;;;;;;60.97;39.77;;;;;;;11.27;100.00;148872.81;6183610;23;20213;-56
2023/12/13 07:32:31;;;;;;;63.20;38.20;;;;;;;11.12;100.00;148836.13;6184511;23;20602;-57
2023/12/13 07:34:58;;;;;;;59.37;38.93;;;;;;;11.42;100.00;148912.00;6183074;23;20276;-56
2023/12/13 07:37:25;;;;;;;60.10;37.97;;;;;;;11.04;100.00;148815.91;6183247;23;20236;-56
2023/12/13 07:39:52;;;;;;;65.43;40.53;;;;;;;11.08;100.00;148824.75;6183213;23;20158;-57
2023/12/13 07:42:19;;;;;;;76.83;44.13;;;;;;;10.96;100.00;148795.66;6183000;23;20217;-58
2023/12/13 07:44:46;;;;;;;86.03;49.30;;;;;;;11.01;100.00;148808.31;6184879;23;20159;-57
2023/12/13 07:47:13;;;;;;;87.80;53.33;;;;;;;10.97;100.00;148798.22;6185099;23;20206;-57
2023/12/13 07:49:42;;;;;;;91.57;51.10;;;;;;;12.07;100.00;149072.75;6184563;23;20182;-59
2023/12/13 07:52:09;;;;;;;83.10;50.33;;;;;;;12.68;100.00;149225.94;6185020;23;20208;-58
2023/12/13 07:54:36;;;;;;;78.93;47.13;;;;;;;13.60;100.00;149457.75;6185137;23;20213;-57
2023/12/13 07:57:04;;;;;;;78.30;46.20;;;;;;;14.29;100.00;149630.16;6184554;23;20169;-58
2023/12/13 07:59:31;;;;;;;98.17;47.37;;;;;;;14.75;100.00;149745.56;6186602;23;20445;-58
2023/12/13 08:01:58;;;;;;;72.87;43.67;;;;;;;13.03;100.00;149314.53;6184674;23;20181;-57
2023/12/13 08:04:25;;;;;;;71.87;43.63;;;;;;;13.15;100.00;149343.75;6185049;23;20162;-58
2023/12/13 08:06:53;;;;;;;72.93;45.43;;;;;;;12.77;100.00;149249.97;6185132;23;20158;-58
2023/12/13 08:09:21;;;;;;;81.87;47.20;;;;;;;13.63;100.00;149464.09;6185111;23;20236;-57
2023/12/13 08:11:48;;;;;;;87.37;43.40;;;;;;;14.83;100.00;149764.56;6184987;23;20505;-58
2023/12/13 08:14:15;;;;;;;75.20;42.30;;;;;;;14.05;100.00;149570.53;6185065;23;20550;-57
2023/12/13 08:16:42;;;;;;;67.57;35.50;;;;;;;12.66;100.00;149220.84;6184584;23;20162;-58
2023/12/13 08:19:10;;;;;;;71.23;44.03;;;;;;;11.82;100.00;149010.75;6185932;23;20189;-58
2023/12/13 08:21:40;;;;;;;76.60;43.50;;;;;;;11.65;100.00;148967.69;6184436;23;20166;-57
2023/12/13 08:24:10;;;;;;;71.23;43.77;;;;;;;11.30;100.00;148881.66;6184770;23;20158;-57
2023/12/13 08:26:37;;;;;;;74.43;43.67;;;;;;;11.56;100.00;148944.91;6184581;23;20195;-57
2023/12/13 08:29:04;;;;;;;55.23;35.23;;;;;;;11.40;100.00;148905.72;6184449;23;20158;-59
2023/12/13 08:31:31;;;;;;;54.50;33.20;;;;;;;11.55;100.00;143340.34;6184531;23;20248;-59
2023/12/13 08:34:00;;;;;;;43.30;28.47;;;;;;;11.49;100.00;137584.75;6184950;23;20220;-64
2023/12/13 08:36:27;;;;;;;54.03;30.23;;;;;;;11.72;100.00;141551.50;6186696;23;20172;-62
2023/12/13 08:38:54;;;;;;;39.00;23.17;;;;;;;12.38;100.00;149149.97;6184707;23;20212;-62
2023/12/13 08:41:23;;;;;;;58.50;30.13;;;;;;;12.78;100.00;149251.22;6184512;23;20269;-63
2023/12/13 08:43:50;;;;;;;66.37;32.57;;;;;;;12.82;100.00;149262.63;6184858;23;20262;-63
2023/12/13 08:46:17;;;;;;;78.53;34.00;;;;;;;12.98;100.00;149300.66;6184650;23;20213;-63
2023/12/13 08:48:45;;;;;;;61.07;30.63;;;;;;;12.78;100.00;149251.22;6184917;23;20219;-65
2023/12/13 08:51:12;;;;;;;44.07;26.40;;;;;;;12.97;100.00;149299.38;6185526;23;20285;-62
2023/12/13 08:53:39;;;;;;;42.03;27.17;;;;;;;13.06;100.00;149320.91;6179346;23;20255;-63
2023/12/13 08:56:09;;;;;;;37.50;26.10;;;;;;;13.04;100.00;149317.09;6184617;23;20477;-63
2023/12/13 08:58:38;;;;;;;35.47;23.00;;;;;;;13.17;100.00;149348.81;6184473;23;20180;-63
2023/12/13 09:01:05;;;;;;;38.60;22.40;;;;;;;12.92;100.00;149286.72;6184506;23;20158;-63
2023/12/13 09:03:32;;;;;;;52.50;25.30;;;;;;;12.87;100.00;149274.03;6183992;23;20162;-61
2023/12/13 09:05:59;;;;;;;48.93;25.00;;;;;;;13.07;100.00;149324.69;6184372;23;20163;-63
2023/12/13 09:08:26;;;;;;;22.73;15.73;;;;;;;13.00;100.00;149306.97;6184071;23;20245;-64
2023/12/13 09:10:55;;;;;;;16.43;14.27;;;;;;;12.43;100.00;149162.63;6184086;23;20186;-63
2023/12/13 09:13:22;;;;;;;25.73;15.90;;;;;;;12.19;100.00;149104.41;6184216;23;20241;-63
2023/12/13 09:15:50;;;;;;;24.13;12.77;;;;;;;11.99;100.00;144251.28;6184718;23;20173;-63
2023/12/13 09:18:17;;;;;;;24.53;13.63;;;;;;;12.31;100.00;133107.91;6184957;23;20216;-63
2023/12/13 09:20:45;;;;;;;19.00;14.17;;;;;;;13.43;100.00;149413.41;6185169;23;20228;-62
2023/12/13 09:23:21;;;;;;;12.00;10.93;;;;;;;14.19;100.00;149604.78;6184897;23;20229;-64
2023/12/13 09:25:48;;;;;;;13.13;10.90;;;;;;;14.14;100.00;149593.34;6184678;23;20190;-62
2023/12/13 09:28:15;;;;;;;11.03;10.17;;;;;;;13.77;100.00;149499.56;6184433;23;20213;-63
2023/12/13 09:30:43;;;;;;;13.10;11.73;;;;;;;13.43;100.00;149413.41;6184261;23;20182;-61
2023/12/13 09:33:13;;;;;;;11.10;10.40;;;;;;;13.80;100.00;149507.16;6184526;23;20186;-62
2023/12/13 09:35:41;;;;;;;16.60;11.30;;;;;;;13.75;100.00;149493.25;6184123;23;20166;-62
2023/12/13 09:38:08;;;;;;;16.47;12.13;;;;;;;14.33;100.00;149639.00;6183680;23;20193;-61
2023/12/13 09:40:35;;;;;;;17.03;11.90;;;;;;;14.88;100.00;149778.53;6183915;23;20158;-62
2023/12/13 09:43:03;;;;;;;18.73;11.23;;;;;;;14.91;100.00;149786.13;6184615;23;20166;-62
2023/12/13 09:45:31;;;;;;;15.87;11.70;;;;;;;15.35;100.00;149895.25;6183927;23;20507;-63
2023/12/13 09:47:59;;;;;;;16.73;12.50;;;;;;;15.02;100.00;149814.03;6183687;23;20220;-62
2023/12/13 09:50:28;;;;;;;17.10;10.97;;;;;;;14.90;100.00;149783.59;6183674;23;20193;-62
2023/12/13 09:52:56;;;;;;;18.20;10.73;;;;;;;14.10;100.00;149581.94;6183737;23;20202;-65
2023/12/13 09:55:23;;;;;;;10.57;9.80;;;;;;;13.80;100.00;149507.16;6184139;23;20162;-63
2023/12/13 09:57:50;;;;;;;13.77;11.67;;;;;;;12.91;100.00;149284.16;6184097;23;20549;-62
2023/12/13 10:00:18;;;;;;;15.77;12.60;;;;;;;12.59;100.00;149203.16;6183943;23;20158;-64
2023/12/13 10:02:46;;;;;;;16.87;11.43;;;;;;;12.65;100.00;149218.31;6183577;23;20165;-64
2023/12/13 10:05:17;;;;;;;26.03;14.23;;;;;;;12.92;100.00;149286.72;6183924;23;20228;-63
2023/12/13 10:07:46;;;;;;;11.63;10.50;;;;;;;12.96;100.00;149296.84;6184217;23;20163;-63
2023/12/13 10:10:13;;;;;;;11.87;10.77;;;;;;;13.07;100.00;149324.69;6183453;23;20235;-63
2023/12/13 10:12:40;;;;;;;24.37;11.43;;;;;;;13.24;100.00;149367.78;6184349;23;20189;-61
2023/12/13 10:15:10;;;;;;;12.30;11.10;;;;;;;13.10;100.00;149332.38;6183555;23;20193;-62
2023/12/13 10:17:37;;;;;;;25.37;11.57;;;;;;;13.32;100.00;149385.56;6184848;23;20627;-62
2023/12/13 10:20:06;;;;;;;14.83;11.00;;;;;;;13.58;100.00;149452.66;6184282;23;20465;-62
2023/12/13 10:22:33;;;;;;;11.70;10.60;;;;;;;13.27;100.00;149375.44;6183756;23;20608;-63
2023/12/13 10:25:03;;;;;;;10.27;9.43;;;;;;;12.97;100.00;149299.38;6184093;23;20204;-64
2023/12/13 10:27:31;;;;;;;11.10;9.87;;;;;;;12.60;100.00;149206.91;6183552;23;20219;-61
2023/12/13 10:29:59;;;;;;;14.43;10.20;;;;;;;12.62;100.00;149210.72;6184396;23;20158;-63
2023/12/13 10:32:26;;;;;;;12.87;10.50;;;;;;;12.98;100.00;149301.91;6184065;23;20166;-63
2023/12/13 10:34:53;;;;;;;11.43;8.83;;;;;;;13.34;100.00;149390.59;6183383;23;20498;-63
2023/12/13 10:37:24;;;;;;;9.63;8.23;;;;;;;13.28;100.00;149377.94;6184818;23;20193;-65
2023/12/13 10:39:54;;;;;;;7.93;7.17;;;;;;;13.28;100.00;149377.94;6183608;23;20502;-64
2023/12/13 10:42:25;;;;;;;12.47;9.20;;;;;;;13.40;100.00;149405.81;6184360;23;20237;-63
2023/12/13 10:44:53;;;;;;;9.83;8.43;;;;;;;13.78;100.00;149502.13;6183489;23;20181;-63
2023/12/13 10:47:25;;;;;;;11.73;9.47;;;;;;;13.89;100.00;149528.72;6184475;23;20166;-63
2023/12/13 10:49:53;;;;;;;11.80;9.20;;;;;;;13.96;100.00;149546.50;6183000;23;20158;-64
2023/12/13 10:52:21;;;;;;;23.10;10.60;;;;;;;13.96;100.00;149546.50;6184264;23;20202;-63
2023/12/13 10:54:48;;;;;;;12.83;9.67;;;;;;;14.11;100.00;149585.78;6183923;23;20176;-63
2023/12/13 10:57:16;;;;;;;9.90;9.00;;;;;;;13.58;100.00;149451.41;6184282;23;20158;-62
2023/12/13 10:59:45;;;;;;;13.07;9.27;;;;;;;13.41;100.00;149408.38;6183317;23;20522;-61
2023/12/13 11:02:17;;;;;;;15.07;10.57;;;;;;;12.86;100.00;149271.50;6183594;23;20677;-62
2023/12/13 11:04:44;;;;;;;10.57;9.27;;;;;;;12.81;100.00;149260.09;6183208;23;20220;-63
2023/12/13 11:07:12;;;;;;;14.63;11.20;;;;;;;12.58;100.00;149201.88;6183703;23;20680;-65
2023/12/13 11:09:50;;;;;;;14.50;9.33;;;;;;;12.71;100.00;149233.53;6183167;23;20246;-64
2023/12/13 11:12:18;;;;;;;13.87;9.63;;;;;;;12.78;100.00;149252.50;6183871;23;20200;-64
2023/12/13 11:14:50;;;;;;;20.10;10.60;;;;;;;13.19;100.00;149353.91;6183707;23;20162;-63